createdAt,value
2023-11-12T00:02:19.223Z,99.33
2023-11-12T00:04:48.526Z,99.04
2023-11-12T00:07:16.766Z,99.18
2023-11-12T00:09:45.910Z,99.46
2023-11-12T00:12:14.221Z,99.61
2023-11-12T00:14:46.605Z,99.47
2023-11-12T00:17:15.171Z,99.76
2023-11-12T00:19:44.757Z,100.00
2023-11-12T00:22:13.404Z,99.91
2023-11-12T00:24:41.651Z,99.89
2023-11-12T00:27:10.099Z,99.96
2023-11-12T00:29:38.184Z,99.73
2023-11-12T00:32:09.111Z,99.82
2023-11-12T00:34:37.365Z,99.76
2023-11-12T00:37:08.039Z,99.65
2023-11-12T00:39:36.209Z,99.86
2023-11-12T00:42:04.481Z,99.72
2023-11-12T00:44:32.606Z,99.83
2023-11-12T00:47:00.766Z,99.61
2023-11-12T00:49:28.921Z,99.86
2023-11-12T00:51:57.266Z,99.93
2023-11-12T00:54:26.852Z,99.92
2023-11-12T00:56:55.004Z,100.00
2023-11-12T00:59:23.123Z,100.00
2023-11-12T01:01:51.305Z,99.88
2023-11-12T01:04:19.601Z,99.96
2023-11-12T01:06:47.706Z,99.53
2023-11-12T01:09:15.784Z,99.68
2023-11-12T01:11:45.372Z,99.79
2023-11-12T01:14:14.578Z,99.51
2023-11-12T01:16:42.782Z,99.28
2023-11-12T01:19:11.042Z,99.26
2023-11-12T01:21:39.354Z,99.61
2023-11-12T01:24:08.587Z,99.18
2023-11-12T01:26:37.420Z,99.41
2023-11-12T01:29:06.944Z,99.59
2023-11-12T01:31:35.075Z,99.78
2023-11-12T01:34:04.082Z,100.00
2023-11-12T01:36:32.250Z,99.94
2023-11-12T01:39:00.362Z,99.69
2023-11-12T01:41:28.584Z,99.65
2023-11-12T01:43:56.851Z,99.77
2023-11-12T01:46:26.900Z,99.78
2023-11-12T01:48:55.967Z,99.70
2023-11-12T01:51:25.335Z,99.76
2023-11-12T01:53:53.638Z,99.82
2023-11-12T01:56:23.248Z,100.00
2023-11-12T01:58:53.379Z,99.80
2023-11-12T02:01:21.656Z,99.89
2023-11-12T02:03:53.522Z,99.75
2023-11-12T02:06:21.936Z,99.78
2023-11-12T02:08:50.073Z,99.78
2023-11-12T02:11:19.340Z,99.79
2023-11-12T02:13:47.801Z,99.84
2023-11-12T02:16:16.280Z,99.74
2023-11-12T02:18:47.113Z,99.58
2023-11-12T02:21:16.712Z,99.21
2023-11-12T02:23:46.210Z,99.58
2023-11-12T02:26:14.345Z,99.41
2023-11-12T02:28:42.479Z,99.21
2023-11-12T02:31:10.623Z,99.44
2023-11-12T02:33:39.981Z,99.24
2023-11-12T02:36:09.990Z,99.31
2023-11-12T02:38:38.238Z,99.25
2023-11-12T02:41:11.562Z,99.40
2023-11-12T02:43:39.905Z,99.47
2023-11-12T02:46:08.478Z,99.23
2023-11-12T02:48:50.876Z,99.00
2023-11-12T02:51:19.035Z,98.57
2023-11-12T02:53:47.281Z,98.33
2023-11-12T02:56:17.839Z,98.31
2023-11-12T02:58:46.038Z,98.25
2023-11-12T03:01:14.212Z,98.51
2023-11-12T03:03:42.812Z,98.31
2023-11-12T03:06:10.983Z,98.22
2023-11-12T03:08:39.109Z,97.92
2023-11-12T03:11:07.353Z,97.96
2023-11-12T03:13:36.885Z,97.55
2023-11-12T03:16:05.352Z,97.44
2023-11-12T03:18:33.504Z,97.20
2023-11-12T03:21:02.431Z,96.91
2023-11-12T03:23:30.885Z,96.66
2023-11-12T03:25:59.175Z,96.70
2023-11-12T03:28:27.945Z,96.21
2023-11-12T03:30:57.472Z,95.86
2023-11-12T03:33:29.991Z,95.29
2023-11-12T03:35:58.970Z,94.87
2023-11-12T03:38:27.465Z,94.63
2023-11-12T03:40:56.242Z,94.17
2023-11-12T03:43:24.396Z,93.63
2023-11-12T03:45:52.539Z,93.28
2023-11-12T03:48:22.359Z,92.99
2023-11-12T03:50:50.543Z,92.97
2023-11-12T03:53:18.682Z,92.84
2023-11-12T03:55:46.779Z,92.31
2023-11-12T03:58:15.174Z,92.59
2023-11-12T04:00:43.939Z,92.71
2023-11-12T04:03:12.473Z,92.44
2023-11-12T04:05:42.520Z,92.71
2023-11-12T04:08:10.687Z,92.48
2023-11-12T04:10:39.023Z,92.07
2023-11-12T04:13:07.504Z,91.97
2023-11-12T04:15:36.088Z,92.21
2023-11-12T04:18:04.365Z,92.08
2023-11-12T04:20:33.559Z,92.03
2023-11-12T04:23:03.063Z,91.96
2023-11-12T04:25:31.343Z,91.88
2023-11-12T04:27:59.500Z,92.01
2023-11-12T04:30:27.910Z,91.73
2023-11-12T04:32:56.145Z,91.70
2023-11-12T04:35:24.307Z,91.67
2023-11-12T04:37:52.454Z,91.44
2023-11-12T04:40:22.010Z,91.42
2023-11-12T04:42:50.143Z,91.68
2023-11-12T04:45:21.028Z,91.90
2023-11-12T04:47:49.412Z,91.90
2023-11-12T04:50:17.815Z,92.18
2023-11-12T04:52:45.977Z,92.42
2023-11-12T04:55:14.112Z,92.36
2023-11-12T04:57:43.713Z,92.15
2023-11-12T05:00:13.910Z,92.05
2023-11-12T05:02:42.355Z,92.21
2023-11-12T05:05:11.783Z,92.61
2023-11-12T05:07:39.978Z,93.05
2023-11-12T05:10:12.176Z,93.48
2023-11-12T05:12:40.795Z,93.95
2023-11-12T05:15:11.404Z,94.40
2023-11-12T05:17:39.554Z,94.76
2023-11-12T05:20:09.318Z,94.84
2023-11-12T05:22:38.285Z,94.68
2023-11-12T05:25:07.962Z,95.37
2023-11-12T05:27:36.317Z,96.02
2023-11-12T05:30:04.871Z,96.25
2023-11-12T05:32:34.863Z,96.72
2023-11-12T05:35:03.265Z,96.40
2023-11-12T05:37:31.418Z,96.44
2023-11-12T05:39:59.677Z,96.91
2023-11-12T05:42:27.801Z,96.92
2023-11-12T05:44:55.956Z,96.95
2023-11-12T05:47:24.128Z,97.01
2023-11-12T05:49:53.691Z,97.34
2023-11-12T05:52:21.823Z,97.47
2023-11-12T05:54:50.022Z,97.67
2023-11-12T05:57:18.188Z,97.84
2023-11-12T05:59:46.646Z,97.67
2023-11-12T06:02:15.463Z,97.93
2023-11-12T06:04:43.619Z,97.87
2023-11-12T06:07:13.547Z,97.90
2023-11-12T06:09:42.056Z,97.81
2023-11-12T06:12:10.343Z,97.93
2023-11-12T06:14:38.700Z,97.96
2023-11-12T06:17:06.813Z,97.88
2023-11-12T06:19:34.980Z,98.07
2023-11-12T06:22:04.114Z,98.04
2023-11-12T06:24:33.825Z,98.16
2023-11-12T06:27:01.940Z,98.31
2023-11-12T06:29:30.125Z,98.48
2023-11-12T06:31:58.220Z,98.70
2023-11-12T06:34:26.382Z,98.85
2023-11-12T06:36:54.518Z,98.92
2023-11-12T06:39:22.672Z,98.96
2023-11-12T06:41:52.184Z,99.07
2023-11-12T06:44:21.088Z,99.11
2023-11-12T06:46:49.215Z,99.06
2023-11-12T06:49:17.877Z,99.32
2023-11-12T06:51:46.069Z,99.50
2023-11-12T06:54:14.306Z,99.48
2023-11-12T06:56:42.475Z,99.45
2023-11-12T06:59:11.977Z,99.64
2023-11-12T07:01:40.284Z,99.75
2023-11-12T07:04:11.512Z,99.56
2023-11-12T07:06:39.901Z,99.34
2023-11-12T07:09:09.291Z,99.42
2023-11-12T07:11:37.432Z,99.62
2023-11-12T07:14:05.925Z,99.44
2023-11-12T07:16:36.559Z,99.71
2023-11-12T07:19:05.468Z,99.47
2023-11-12T07:21:33.956Z,99.47
2023-11-12T07:24:02.446Z,99.46
2023-11-12T07:26:30.580Z,99.46
2023-11-12T07:28:58.716Z,99.32
2023-11-12T07:31:26.875Z,99.70
2023-11-12T07:33:56.737Z,99.50
2023-11-12T07:36:25.514Z,99.76
2023-11-12T07:38:53.681Z,99.72
2023-11-12T07:41:23.657Z,99.95
2023-11-12T07:43:51.809Z,100.00
2023-11-12T07:46:19.970Z,99.78
2023-11-12T07:48:48.773Z,100.00
2023-11-12T07:51:18.404Z,99.94
2023-11-12T07:53:46.545Z,99.79
2023-11-12T07:56:14.901Z,99.71
2023-11-12T07:58:43.953Z,99.83
2023-11-12T08:01:12.318Z,100.00
2023-11-12T08:03:40.497Z,99.75
2023-11-12T08:06:10.517Z,100.00
2023-11-12T08:08:40.029Z,100.00
2023-11-12T08:11:08.258Z,100.00
2023-11-12T08:13:36.422Z,100.00
2023-11-12T08:16:04.952Z,100.00
2023-11-12T08:18:33.704Z,100.00
2023-11-12T08:21:01.818Z,100.00
2023-11-12T08:23:30.009Z,100.00
2023-11-12T08:26:02.879Z,100.00
2023-11-12T08:28:31.440Z,100.00
2023-11-12T08:31:00.013Z,100.00
2023-11-12T08:33:28.477Z,100.00
2023-11-12T08:35:56.615Z,100.00
2023-11-12T08:38:24.972Z,100.00
2023-11-12T08:40:53.128Z,100.00
2023-11-12T08:43:25.200Z,100.00
2023-11-12T08:45:53.387Z,100.00
2023-11-12T08:48:21.751Z,100.00
2023-11-12T08:50:52.032Z,100.00
2023-11-12T08:53:20.181Z,100.00
2023-11-12T08:55:48.290Z,100.00
2023-11-12T08:58:16.424Z,100.00
2023-11-12T09:00:45.965Z,99.84
2023-11-12T09:03:14.194Z,99.99
2023-11-12T09:05:42.328Z,99.80
2023-11-12T09:08:10.827Z,99.80
2023-11-12T09:10:39.032Z,99.93
2023-11-12T09:13:07.185Z,99.65
2023-11-12T09:15:35.337Z,99.68
2023-11-12T09:18:05.660Z,99.67
2023-11-12T09:20:34.098Z,99.74
2023-11-12T09:23:02.587Z,99.41
2023-11-12T09:25:31.045Z,99.44
2023-11-12T09:27:59.417Z,99.69
2023-11-12T09:30:34.432Z,99.46
2023-11-12T09:33:10.702Z,99.40
2023-11-12T09:35:38.834Z,99.49
2023-11-12T09:38:07.044Z,98.94
2023-11-12T09:40:37.120Z,99.10
2023-11-12T09:43:05.522Z,98.56
2023-11-12T09:45:34.977Z,98.81
2023-11-12T09:48:09.599Z,98.54
2023-11-12T09:50:39.731Z,98.49
2023-11-12T09:53:08.854Z,97.59
2023-11-12T09:55:37.086Z,97.52
2023-11-12T09:58:05.813Z,97.47
2023-11-12T10:00:35.691Z,97.02
2023-11-12T10:03:07.660Z,96.80
2023-11-12T10:05:36.908Z,96.69
2023-11-12T10:08:07.312Z,96.88
2023-11-12T10:10:35.890Z,96.55
2023-11-12T10:13:05.910Z,96.07
2023-11-12T10:15:36.087Z,95.95
2023-11-12T10:18:05.407Z,96.05
2023-11-12T10:20:38.368Z,95.43
2023-11-12T10:23:26.870Z,95.50
2023-11-12T10:26:00.750Z,95.18
2023-11-12T10:28:35.597Z,94.69
2023-11-12T10:31:04.257Z,94.94
2023-11-12T10:33:33.292Z,94.95
2023-11-12T10:36:08.511Z,94.91
2023-11-12T10:38:48.500Z,94.73
2023-11-12T10:41:17.046Z,94.71
2023-11-12T10:43:58.468Z,94.68
2023-11-12T10:46:27.711Z,94.63
2023-11-12T10:48:57.671Z,94.67
2023-11-12T10:51:26.499Z,94.41
2023-11-12T10:53:58.347Z,94.53
2023-11-12T10:56:26.487Z,93.95
2023-11-12T10:58:55.424Z,93.55
2023-11-12T11:01:24.309Z,93.01
2023-11-12T11:03:53.255Z,93.34
2023-11-12T11:06:23.235Z,93.71
2023-11-12T11:08:51.367Z,94.10
2023-11-12T11:11:22.467Z,94.05
2023-11-12T11:13:50.644Z,93.89
2023-11-12T11:16:49.645Z,93.78
2023-11-12T11:19:19.058Z,94.15
2023-11-12T11:22:25.089Z,93.67
2023-11-12T11:24:54.355Z,93.78
2023-11-12T11:27:26.322Z,93.73
2023-11-12T11:30:13.993Z,93.32
2023-11-12T11:33:00.891Z,93.49
2023-11-12T11:35:30.290Z,93.22
2023-11-12T11:38:13.448Z,93.26
2023-11-12T11:40:43.682Z,92.91
2023-11-12T11:43:35.403Z,92.93
2023-11-12T11:46:11.617Z,92.38
2023-11-12T11:49:20.666Z,92.47
2023-11-12T11:51:49.738Z,92.35
2023-11-12T11:54:18.216Z,92.78
2023-11-12T11:56:47.134Z,92.70
2023-11-12T11:59:16.762Z,93.00
2023-11-12T12:01:48.934Z,93.19
2023-11-12T12:04:17.907Z,93.04
2023-11-12T12:06:46.935Z,93.42
2023-11-12T12:09:18.427Z,93.54
2023-11-12T12:11:48.321Z,93.27
2023-11-12T12:14:17.984Z,93.67
2023-11-12T12:16:47.087Z,93.84
2023-11-12T12:19:20.054Z,93.80
2023-11-12T12:21:50.375Z,93.55
2023-11-12T12:24:18.918Z,93.82
2023-11-12T12:26:47.580Z,93.83
2023-11-12T12:29:19.754Z,93.52
2023-11-12T12:31:49.592Z,93.80
2023-11-12T12:34:18.547Z,94.17
2023-11-12T12:36:57.571Z,94.71
2023-11-12T12:39:28.043Z,94.58
2023-11-12T12:42:04.655Z,94.25
2023-11-12T12:44:34.504Z,93.91
2023-11-12T12:47:02.932Z,93.63
2023-11-12T12:49:32.625Z,93.84
2023-11-12T12:52:01.644Z,94.33
2023-11-12T12:54:31.359Z,93.87
2023-11-12T12:57:01.037Z,94.25
2023-11-12T12:59:36.680Z,94.24
2023-11-12T13:02:05.060Z,95.03
2023-11-12T13:04:34.131Z,95.18
2023-11-12T13:07:07.847Z,95.30
2023-11-12T13:09:38.862Z,94.46
2023-11-12T13:12:08.806Z,94.31
2023-11-12T13:14:38.805Z,93.93
2023-11-12T13:17:06.939Z,93.65
2023-11-12T13:19:35.413Z,93.85
2023-11-12T13:22:05.475Z,93.90
2023-11-12T13:24:35.379Z,93.72
2023-11-12T13:27:04.017Z,93.66
2023-11-12T13:29:32.106Z,93.79
2023-11-12T13:32:01.689Z,93.77
2023-11-12T13:34:29.845Z,93.06
2023-11-12T13:36:58.139Z,93.30
2023-11-12T13:39:28.583Z,93.64
2023-11-12T13:41:59.013Z,93.63
2023-11-12T13:44:27.206Z,93.49
2023-11-12T13:46:55.375Z,93.33
2023-11-12T13:49:25.003Z,93.11
2023-11-12T13:51:56.837Z,93.19
2023-11-12T13:54:25.090Z,92.89
2023-11-12T13:56:53.296Z,92.82
2023-11-12T13:59:22.126Z,92.95
2023-11-12T14:01:51.555Z,92.87
2023-11-12T14:04:19.829Z,93.24
2023-11-12T14:06:53.422Z,93.89
2023-11-12T14:09:22.195Z,93.87
2023-11-12T14:11:52.164Z,94.25
2023-11-12T14:14:21.840Z,94.64
2023-11-12T14:16:50.092Z,94.42
2023-11-12T14:19:18.331Z,94.80
2023-11-12T14:21:46.557Z,94.46
2023-11-12T14:24:18.086Z,94.82
2023-11-12T14:26:47.240Z,94.74
2023-11-12T14:29:16.948Z,94.80
2023-11-12T14:31:45.652Z,94.51
2023-11-12T14:34:14.198Z,94.54
2023-11-12T14:36:42.890Z,94.54
2023-11-12T14:39:12.219Z,94.59
2023-11-12T14:41:42.037Z,94.66
2023-11-12T14:44:10.629Z,94.58
2023-11-12T14:46:39.959Z,95.18
2023-11-12T14:49:08.803Z,95.14
2023-11-12T14:51:41.420Z,95.19
2023-11-12T14:54:10.065Z,95.08
2023-11-12T14:56:38.601Z,94.73
2023-11-12T14:59:08.308Z,94.82
2023-11-12T15:01:36.998Z,94.89
2023-11-12T15:04:05.462Z,94.82
2023-11-12T15:06:33.670Z,94.70
2023-11-12T15:09:01.776Z,94.62
2023-11-12T15:11:31.549Z,94.59
2023-11-12T15:14:00.976Z,94.56
2023-11-12T15:16:30.795Z,94.37
2023-11-12T15:18:58.995Z,94.24
2023-11-12T15:21:28.526Z,94.19
2023-11-12T15:23:56.843Z,94.18
2023-11-12T15:26:24.960Z,94.08
2023-11-12T15:28:54.243Z,94.47
2023-11-12T15:31:22.525Z,94.43
2023-11-12T15:33:52.123Z,94.33
2023-11-12T15:36:20.340Z,94.75
2023-11-12T15:38:49.234Z,94.82
2023-11-12T15:41:17.371Z,94.72
2023-11-12T15:43:45.486Z,94.88
2023-11-12T15:46:14.465Z,94.47
2023-11-12T15:48:42.733Z,94.44
2023-11-12T15:51:14.050Z,94.68
2023-11-12T15:53:42.850Z,94.94
2023-11-12T15:56:14.129Z,95.00
2023-11-12T15:58:42.305Z,94.87
2023-11-12T16:01:10.537Z,95.11
2023-11-12T16:03:38.836Z,94.98
2023-11-12T16:06:07.647Z,95.11
2023-11-12T16:08:41.498Z,95.33
2023-11-12T16:11:14.063Z,95.62
2023-11-12T16:13:42.167Z,95.50
2023-11-12T16:16:10.392Z,95.84
2023-11-12T16:18:38.581Z,95.40
2023-11-12T16:21:06.800Z,95.75
2023-11-12T16:23:35.277Z,95.72
2023-11-12T16:26:04.733Z,95.59
2023-11-12T16:28:33.311Z,95.95
2023-11-12T16:31:03.171Z,96.10
2023-11-12T16:33:32.136Z,96.09
2023-11-12T16:36:00.401Z,96.07
2023-11-12T16:38:31.135Z,96.24
2023-11-12T16:40:59.206Z,96.00
2023-11-12T16:43:28.714Z,96.53
2023-11-12T16:45:59.153Z,96.41
2023-11-12T16:48:27.458Z,96.48
2023-11-12T16:50:55.578Z,96.46
2023-11-12T16:53:25.908Z,96.32
2023-11-12T16:55:55.273Z,96.49
2023-11-12T16:58:23.571Z,96.74
2023-11-12T17:00:54.262Z,96.44
2023-11-12T17:03:23.050Z,96.60
2023-11-12T17:05:51.235Z,96.61
2023-11-12T17:08:19.398Z,96.61
2023-11-12T17:10:48.550Z,96.80
2023-11-12T17:13:16.726Z,96.46
2023-11-12T17:15:44.869Z,96.59
2023-11-12T17:18:14.611Z,96.69
2023-11-12T17:20:43.636Z,96.98
2023-11-12T17:23:13.111Z,97.04
2023-11-12T17:25:43.010Z,96.97
2023-11-12T17:28:11.178Z,97.15
2023-11-12T17:30:39.306Z,96.96
2023-11-12T17:33:08.148Z,96.98
2023-11-12T17:35:39.953Z,97.03
2023-11-12T17:38:08.115Z,97.11
2023-11-12T17:40:37.551Z,97.03
2023-11-12T17:43:05.996Z,97.16
2023-11-12T17:45:34.185Z,97.41
2023-11-12T17:48:02.489Z,97.56
2023-11-12T17:50:30.665Z,97.21
2023-11-12T17:53:00.198Z,97.23
2023-11-12T17:55:28.644Z,97.43
2023-11-12T17:57:58.126Z,97.37
2023-11-12T18:00:26.928Z,97.56
2023-11-12T18:02:55.090Z,97.32
2023-11-12T18:05:26.037Z,97.50
2023-11-12T18:07:54.538Z,97.30
2023-11-12T18:10:24.169Z,97.41
2023-11-12T18:12:52.377Z,97.28
2023-11-12T18:15:21.374Z,97.31
2023-11-12T18:17:49.522Z,97.26
2023-11-12T18:20:18.777Z,97.42
2023-11-12T18:22:46.917Z,97.32
2023-11-12T18:25:16.660Z,97.35
2023-11-12T18:27:46.271Z,97.40
2023-11-12T18:30:16.552Z,97.33
2023-11-12T18:32:44.764Z,97.39
2023-11-12T18:35:12.919Z,97.74
2023-11-12T18:37:42.153Z,97.47
2023-11-12T18:40:15.876Z,97.65
2023-11-12T18:42:44.351Z,97.99
2023-11-12T18:45:17.102Z,98.08
2023-11-12T18:47:45.590Z,98.34
2023-11-12T18:50:13.996Z,98.40
2023-11-12T18:52:42.672Z,98.82
2023-11-12T18:55:14.986Z,98.56
2023-11-12T18:57:43.298Z,98.82
2023-11-12T19:00:13.994Z,99.07
2023-11-12T19:02:43.755Z,98.96
2023-11-12T19:05:12.497Z,99.32
2023-11-12T19:07:40.650Z,99.54
2023-11-12T19:10:12.172Z,99.50
2023-11-12T19:12:41.560Z,99.37
2023-11-12T19:15:10.827Z,99.21
2023-11-12T19:17:44.184Z,98.92
2023-11-12T19:20:13.974Z,98.81
2023-11-12T19:22:42.444Z,99.04
2023-11-12T19:25:13.615Z,99.01
2023-11-12T19:27:42.555Z,99.09
2023-11-12T19:30:15.102Z,99.10
2023-11-12T19:32:46.540Z,99.33
2023-11-12T19:35:15.503Z,99.31
2023-11-12T19:37:45.477Z,99.19
2023-11-12T19:40:17.890Z,99.21
2023-11-12T19:42:49.069Z,99.25
2023-11-12T19:45:19.951Z,99.59
2023-11-12T19:47:53.293Z,99.66
2023-11-12T19:50:22.883Z,99.92
2023-11-12T19:52:51.130Z,100.00
2023-11-12T19:55:20.403Z,100.00
2023-11-12T19:57:53.113Z,100.00
2023-11-12T20:00:22.422Z,99.88
2023-11-12T20:02:52.872Z,100.00
2023-11-12T20:05:21.497Z,99.93
2023-11-12T20:07:50.626Z,99.78
2023-11-12T20:10:18.822Z,100.00
2023-11-12T20:12:47.082Z,99.79
2023-11-12T20:15:19.277Z,99.84
2023-11-12T20:17:48.237Z,100.00
2023-11-12T20:20:17.796Z,100.00
2023-11-12T20:22:46.248Z,100.00
2023-11-12T20:25:14.602Z,100.00
2023-11-12T20:27:42.902Z,100.00
2023-11-12T20:30:12.046Z,100.00
2023-11-12T20:32:40.617Z,100.00
2023-11-12T20:35:10.889Z,100.00
2023-11-12T20:37:40.576Z,100.00
2023-11-12T20:40:10.632Z,100.00
2023-11-12T20:42:42.651Z,100.00
2023-11-12T20:45:17.606Z,100.00
2023-11-12T20:47:50.636Z,100.00
2023-11-12T20:50:18.814Z,100.00
2023-11-12T20:52:49.695Z,100.00
2023-11-12T20:55:17.908Z,100.00
2023-11-12T20:57:50.070Z,100.00
2023-11-12T21:00:22.166Z,100.00
2023-11-12T21:02:52.570Z,100.00
2023-11-12T21:05:21.497Z,100.00
2023-11-12T21:07:51.445Z,100.00
2023-11-12T21:10:22.341Z,100.00
2023-11-12T21:12:50.685Z,100.00
2023-11-12T21:15:19.295Z,99.94
2023-11-12T21:17:47.469Z,99.79
2023-11-12T21:20:16.924Z,100.00
2023-11-12T21:22:45.588Z,99.91
2023-11-12T21:25:18.129Z,99.86
2023-11-12T21:27:47.074Z,99.63
2023-11-12T21:30:20.771Z,99.67
2023-11-12T21:32:49.348Z,99.81
2023-11-12T21:35:18.547Z,99.74
2023-11-12T21:37:46.670Z,99.72
2023-11-12T21:40:17.686Z,100.00
2023-11-12T21:42:46.715Z,100.00
2023-11-12T21:45:16.033Z,100.00
2023-11-12T21:47:44.186Z,100.00
2023-11-12T21:50:16.559Z,100.00
2023-11-12T21:52:45.041Z,100.00
2023-11-12T21:55:13.279Z,100.00
2023-11-12T21:57:43.715Z,100.00
2023-11-12T22:00:13.642Z,100.00
2023-11-12T22:02:42.771Z,100.00
2023-11-12T22:05:13.387Z,100.00
2023-11-12T22:07:42.108Z,99.87
2023-11-12T22:10:12.967Z,99.86
2023-11-12T22:12:43.177Z,99.78
2023-11-12T22:15:14.818Z,99.86
2023-11-12T22:17:43.529Z,99.43
2023-11-12T22:20:15.367Z,99.47
2023-11-12T22:22:44.929Z,99.18
2023-11-12T22:25:14.856Z,99.59
2023-11-12T22:27:47.534Z,99.56
2023-11-12T22:30:17.528Z,99.53
2023-11-12T22:32:48.011Z,99.58
2023-11-12T22:35:16.290Z,99.53
2023-11-12T22:37:44.659Z,99.33
2023-11-12T22:40:14.136Z,99.53
2023-11-12T22:42:42.345Z,99.57
2023-11-12T22:45:13.809Z,99.57
2023-11-12T22:47:42.539Z,99.70
2023-11-12T22:50:13.171Z,99.95
2023-11-12T22:52:41.372Z,100.00
2023-11-12T22:55:10.928Z,99.71
2023-11-12T22:57:40.696Z,99.88
2023-11-12T23:00:36.945Z,99.95
2023-11-12T23:03:13.674Z,99.80
2023-11-12T23:05:42.125Z,99.90
2023-11-12T23:08:11.452Z,100.00
2023-11-12T23:10:40.462Z,100.00
2023-11-12T23:13:09.395Z,100.00
2023-11-12T23:15:37.729Z,100.00
2023-11-12T23:18:06.592Z,100.00
2023-11-12T23:20:36.586Z,100.00
2023-11-12T23:23:04.744Z,100.00
2023-11-12T23:25:33.389Z,100.00
2023-11-12T23:28:02.185Z,100.00
2023-11-12T23:30:30.565Z,100.00
2023-11-12T23:32:58.737Z,100.00
2023-11-12T23:35:28.518Z,100.00
2023-11-12T23:37:58.018Z,100.00
2023-11-12T23:40:28.258Z,100.00
2023-11-12T23:42:56.453Z,100.00
2023-11-12T23:45:24.539Z,100.00
2023-11-12T23:47:53.281Z,100.00
2023-11-12T23:50:25.394Z,100.00
2023-11-12T23:52:53.585Z,100.00
2023-11-12T23:55:24.193Z,100.00
2023-11-12T23:57:52.931Z,100.00
